sensor_id;sensor_type;location;lat;lon;timestamp;temperature;humidity
47336;DHT22;33068;51.990;5.926;2024-01-16T00:00:00;0.50;99.90
47336;DHT22;33068;51.990;5.926;2024-01-16T00:02:31;0.60;99.90
47336;DHT22;33068;51.990;5.926;2024-01-16T00:04:59;0.50;99.90
47336;DHT22;33068;51.990;5.926;2024-01-16T00:07:26;0.50;99.90
47336;DHT22;33068;51.990;5.926;2024-01-16T00:09:53;0.40;99.90
47336;DHT22;33068;51.990;5.926;2024-01-16T00:12:20;0.40;99.90
47336;DHT22;33068;51.990;5.926;2024-01-16T00:14:47;0.30;99.90
47336;DHT22;33068;51.990;5.926;2024-01-16T00:17:15;0.30;99.90
47336;DHT22;33068;51.990;5.926;2024-01-16T00:19:43;0.30;99.90
47336;DHT22;33068;51.990;5.926;2024-01-16T00:22:10;0.20;99.90
47336;DHT22;33068;51.990;5.926;2024-01-16T00:24:37;0.20;99.90
47336;DHT22;33068;51.990;5.926;2024-01-16T00:27:04;0.20;99.90
47336;DHT22;33068;51.990;5.926;2024-01-16T00:29:31;0.20;99.90
47336;DHT22;33068;51.990;5.926;2024-01-16T00:31:59;0.20;99.90
47336;DHT22;33068;51.990;5.926;2024-01-16T00:34:26;0.20;99.90
47336;DHT22;33068;51.990;5.926;2024-01-16T00:36:54;0.20;99.90
47336;DHT22;33068;51.990;5.926;2024-01-16T00:39:21;0.20;99.90
47336;DHT22;33068;51.990;5.926;2024-01-16T00:41:48;0.20;99.90
47336;DHT22;33068;51.990;5.926;2024-01-16T00:44:15;0.20;99.90
47336;DHT22;33068;51.990;5.926;2024-01-16T00:46:42;0.10;99.90
47336;DHT22;33068;51.990;5.926;2024-01-16T00:49:09;0.20;99.90
47336;DHT22;33068;51.990;5.926;2024-01-16T00:51:36;0.10;99.90
47336;DHT22;33068;51.990;5.926;2024-01-16T00:54:05;0.20;99.90
47336;DHT22;33068;51.990;5.926;2024-01-16T00:56:35;0.20;99.90
47336;DHT22;33068;51.990;5.926;2024-01-16T00:59:03;0.20;99.90
47336;DHT22;33068;51.990;5.926;2024-01-16T01:01:30;0.20;99.90
47336;DHT22;33068;51.990;5.926;2024-01-16T01:03:57;0.30;99.90
47336;DHT22;33068;51.990;5.926;2024-01-16T01:06:24;0.30;99.90
47336;DHT22;33068;51.990;5.926;2024-01-16T01:08:51;0.40;99.90
47336;DHT22;33068;51.990;5.926;2024-01-16T01:11:20;0.30;99.90
47336;DHT22;33068;51.990;5.926;2024-01-16T01:13:47;0.40;99.90
47336;DHT22;33068;51.990;5.926;2024-01-16T01:16:14;0.40;99.90
47336;DHT22;33068;51.990;5.926;2024-01-16T01:18:42;0.30;99.90
47336;DHT22;33068;51.990;5.926;2024-01-16T01:21:09;0.30;99.90
47336;DHT22;33068;51.990;5.926;2024-01-16T01:23:36;0.30;99.90
47336;DHT22;33068;51.990;5.926;2024-01-16T01:26:03;0.30;99.90
47336;DHT22;33068;51.990;5.926;2024-01-16T01:28:32;0.30;99.90
47336;DHT22;33068;51.990;5.926;2024-01-16T01:30:59;0.20;99.90
47336;DHT22;33068;51.990;5.926;2024-01-16T01:33:26;0.20;99.90
47336;DHT22;33068;51.990;5.926;2024-01-16T01:35:53;0.20;99.90
47336;DHT22;33068;51.990;5.926;2024-01-16T01:38:20;0.10;99.90
47336;DHT22;33068;51.990;5.926;2024-01-16T01:40:47;0.10;99.90
47336;DHT22;33068;51.990;5.926;2024-01-16T01:43:17;0.10;99.90
47336;DHT22;33068;51.990;5.926;2024-01-16T01:45:48;0.10;99.90
47336;DHT22;33068;51.990;5.926;2024-01-16T01:48:20;0.10;99.90
47336;DHT22;33068;51.990;5.926;2024-01-16T01:50:47;0.10;99.90
47336;DHT22;33068;51.990;5.926;2024-01-16T01:53:15;0.00;99.90
47336;DHT22;33068;51.990;5.926;2024-01-16T01:55:42;0.00;99.90
47336;DHT22;33068;51.990;5.926;2024-01-16T01:58:09;0.00;99.90
47336;DHT22;33068;51.990;5.926;2024-01-16T02:00:36;-0.10;99.90
47336;DHT22;33068;51.990;5.926;2024-01-16T02:03:05;-0.10;99.90
47336;DHT22;33068;51.990;5.926;2024-01-16T02:05:33;-0.10;99.90
47336;DHT22;33068;51.990;5.926;2024-01-16T02:08:00;-0.10;99.90
47336;DHT22;33068;51.990;5.926;2024-01-16T02:10:31;-0.10;99.90
47336;DHT22;33068;51.990;5.926;2024-01-16T02:12:59;-0.10;99.90
47336;DHT22;33068;51.990;5.926;2024-01-16T02:15:27;-0.20;99.90
47336;DHT22;33068;51.990;5.926;2024-01-16T02:17:54;-0.10;99.90
47336;DHT22;33068;51.990;5.926;2024-01-16T02:20:22;-0.10;99.90
47336;DHT22;33068;51.990;5.926;2024-01-16T02:22:52;-0.30;99.90
47336;DHT22;33068;51.990;5.926;2024-01-16T02:25:23;-0.10;99.90
47336;DHT22;33068;51.990;5.926;2024-01-16T02:27:50;-0.20;99.90
47336;DHT22;33068;51.990;5.926;2024-01-16T02:30:18;-0.20;99.90
47336;DHT22;33068;51.990;5.926;2024-01-16T02:32:45;-0.20;99.90
47336;DHT22;33068;51.990;5.926;2024-01-16T02:35:12;-0.10;99.90
47336;DHT22;33068;51.990;5.926;2024-01-16T02:37:41;-0.10;99.90
47336;DHT22;33068;51.990;5.926;2024-01-16T02:40:08;0.00;99.90
47336;DHT22;33068;51.990;5.926;2024-01-16T02:42:37;0.00;99.90
47336;DHT22;33068;51.990;5.926;2024-01-16T02:45:05;0.10;99.90
47336;DHT22;33068;51.990;5.926;2024-01-16T02:47:33;0.10;99.90
47336;DHT22;33068;51.990;5.926;2024-01-16T02:50:00;0.20;99.90
47336;DHT22;33068;51.990;5.926;2024-01-16T02:52:28;0.20;99.90
47336;DHT22;33068;51.990;5.926;2024-01-16T02:54:55;0.20;99.90
47336;DHT22;33068;51.990;5.926;2024-01-16T02:57:22;0.30;99.90
47336;DHT22;33068;51.990;5.926;2024-01-16T02:59:50;0.30;99.90
47336;DHT22;33068;51.990;5.926;2024-01-16T03:02:17;0.30;99.90
47336;DHT22;33068;51.990;5.926;2024-01-16T03:04:44;0.30;99.90
47336;DHT22;33068;51.990;5.926;2024-01-16T03:07:12;0.30;99.90
47336;DHT22;33068;51.990;5.926;2024-01-16T03:09:39;0.30;99.90
47336;DHT22;33068;51.990;5.926;2024-01-16T03:12:06;0.30;99.90
47336;DHT22;33068;51.990;5.926;2024-01-16T03:14:33;0.40;99.90
47336;DHT22;33068;51.990;5.926;2024-01-16T03:17:04;0.30;99.90
47336;DHT22;33068;51.990;5.926;2024-01-16T03:19:32;0.40;99.90
47336;DHT22;33068;51.990;5.926;2024-01-16T03:21:59;0.40;99.90
47336;DHT22;33068;51.990;5.926;2024-01-16T03:24:26;0.40;99.90
47336;DHT22;33068;51.990;5.926;2024-01-16T03:26:53;0.40;99.90
47336;DHT22;33068;51.990;5.926;2024-01-16T03:29:20;0.40;99.90
47336;DHT22;33068;51.990;5.926;2024-01-16T03:31:47;0.40;99.90
47336;DHT22;33068;51.990;5.926;2024-01-16T03:34:16;0.40;99.90
47336;DHT22;33068;51.990;5.926;2024-01-16T03:36:43;0.50;99.90
47336;DHT22;33068;51.990;5.926;2024-01-16T03:39:10;0.40;99.90
47336;DHT22;33068;51.990;5.926;2024-01-16T03:41:37;0.40;99.90
47336;DHT22;33068;51.990;5.926;2024-01-16T03:44:04;0.50;99.90
47336;DHT22;33068;51.990;5.926;2024-01-16T03:46:31;0.50;99.90
47336;DHT22;33068;51.990;5.926;2024-01-16T03:48:58;0.50;99.90
47336;DHT22;33068;51.990;5.926;2024-01-16T03:51:27;0.50;99.90
47336;DHT22;33068;51.990;5.926;2024-01-16T03:53:54;0.50;99.90
47336;DHT22;33068;51.990;5.926;2024-01-16T03:56:22;0.50;99.90
47336;DHT22;33068;51.990;5.926;2024-01-16T03:58:49;0.50;99.90
47336;DHT22;33068;51.990;5.926;2024-01-16T04:01:16;0.50;99.90
47336;DHT22;33068;51.990;5.926;2024-01-16T04:03:43;0.50;99.90
47336;DHT22;33068;51.990;5.926;2024-01-16T04:06:15;0.50;99.90
47336;DHT22;33068;51.990;5.926;2024-01-16T04:08:44;0.50;99.90
47336;DHT22;33068;51.990;5.926;2024-01-16T04:11:12;0.50;99.90
47336;DHT22;33068;51.990;5.926;2024-01-16T04:13:39;0.50;99.90
47336;DHT22;33068;51.990;5.926;2024-01-16T04:16:07;0.50;99.90
47336;DHT22;33068;51.990;5.926;2024-01-16T04:18:35;0.50;99.90
47336;DHT22;33068;51.990;5.926;2024-01-16T04:21:04;0.60;99.90
47336;DHT22;33068;51.990;5.926;2024-01-16T04:23:31;0.60;99.90
47336;DHT22;33068;51.990;5.926;2024-01-16T04:26:00;0.60;99.90
47336;DHT22;33068;51.990;5.926;2024-01-16T04:28:28;0.60;99.90
47336;DHT22;33068;51.990;5.926;2024-01-16T04:30:55;0.60;99.90
47336;DHT22;33068;51.990;5.926;2024-01-16T04:33:22;0.60;99.90
47336;DHT22;33068;51.990;5.926;2024-01-16T04:35:49;0.60;99.90
47336;DHT22;33068;51.990;5.926;2024-01-16T04:38:17;0.60;99.90
47336;DHT22;33068;51.990;5.926;2024-01-16T04:40:44;0.60;99.90
47336;DHT22;33068;51.990;5.926;2024-01-16T04:43:12;0.60;99.90
47336;DHT22;33068;51.990;5.926;2024-01-16T04:45:39;0.60;99.90
47336;DHT22;33068;51.990;5.926;2024-01-16T04:48:07;0.60;99.90
47336;DHT22;33068;51.990;5.926;2024-01-16T04:50:34;0.70;99.90
47336;DHT22;33068;51.990;5.926;2024-01-16T04:53:02;0.60;99.90
47336;DHT22;33068;51.990;5.926;2024-01-16T04:55:29;0.60;99.90
47336;DHT22;33068;51.990;5.926;2024-01-16T04:57:57;0.60;99.90
47336;DHT22;33068;51.990;5.926;2024-01-16T05:00:27;0.60;99.90
47336;DHT22;33068;51.990;5.926;2024-01-16T05:02:54;0.50;99.90
47336;DHT22;33068;51.990;5.926;2024-01-16T05:05:21;0.60;99.90
47336;DHT22;33068;51.990;5.926;2024-01-16T05:07:48;0.60;99.90
47336;DHT22;33068;51.990;5.926;2024-01-16T05:10:15;0.60;99.90
47336;DHT22;33068;51.990;5.926;2024-01-16T05:12:42;0.60;99.90
47336;DHT22;33068;51.990;5.926;2024-01-16T05:15:10;0.60;99.90
47336;DHT22;33068;51.990;5.926;2024-01-16T05:17:39;0.60;99.90
47336;DHT22;33068;51.990;5.926;2024-01-16T05:20:08;0.60;99.90
47336;DHT22;33068;51.990;5.926;2024-01-16T05:22:36;0.60;99.90
47336;DHT22;33068;51.990;5.926;2024-01-16T05:25:05;0.60;99.90
47336;DHT22;33068;51.990;5.926;2024-01-16T05:27:33;0.60;99.90
47336;DHT22;33068;51.990;5.926;2024-01-16T05:30:00;0.60;99.90
47336;DHT22;33068;51.990;5.926;2024-01-16T05:32:28;0.60;99.90
47336;DHT22;33068;51.990;5.926;2024-01-16T05:34:57;0.60;99.90
47336;DHT22;33068;51.990;5.926;2024-01-16T05:37:24;0.70;99.90
47336;DHT22;33068;51.990;5.926;2024-01-16T05:39:51;0.60;99.90
47336;DHT22;33068;51.990;5.926;2024-01-16T05:42:18;0.60;99.90
47336;DHT22;33068;51.990;5.926;2024-01-16T05:44:46;0.60;99.90
47336;DHT22;33068;51.990;5.926;2024-01-16T05:47:13;0.60;99.90
47336;DHT22;33068;51.990;5.926;2024-01-16T05:49:40;0.60;99.90
47336;DHT22;33068;51.990;5.926;2024-01-16T05:52:09;0.60;99.90
47336;DHT22;33068;51.990;5.926;2024-01-16T05:54:37;0.60;99.90
47336;DHT22;33068;51.990;5.926;2024-01-16T05:57:04;0.60;99.90
47336;DHT22;33068;51.990;5.926;2024-01-16T05:59:32;0.60;99.90
47336;DHT22;33068;51.990;5.926;2024-01-16T06:01:59;0.60;99.90
47336;DHT22;33068;51.990;5.926;2024-01-16T06:04:26;0.60;99.90
47336;DHT22;33068;51.990;5.926;2024-01-16T06:06:53;0.60;99.90
47336;DHT22;33068;51.990;5.926;2024-01-16T06:09:22;0.60;99.90
47336;DHT22;33068;51.990;5.926;2024-01-16T06:11:49;0.60;99.90
47336;DHT22;33068;51.990;5.926;2024-01-16T06:14:16;0.60;99.90
47336;DHT22;33068;51.990;5.926;2024-01-16T06:16:47;0.60;99.90
47336;DHT22;33068;51.990;5.926;2024-01-16T06:19:15;0.60;99.90
47336;DHT22;33068;51.990;5.926;2024-01-16T06:21:42;0.60;99.90
47336;DHT22;33068;51.990;5.926;2024-01-16T06:24:09;0.60;99.90
47336;DHT22;33068;51.990;5.926;2024-01-16T06:26:40;0.70;99.90
47336;DHT22;33068;51.990;5.926;2024-01-16T06:29:08;0.60;99.90
47336;DHT22;33068;51.990;5.926;2024-01-16T06:31:35;0.70;99.90
47336;DHT22;33068;51.990;5.926;2024-01-16T06:34:04;0.70;99.90
47336;DHT22;33068;51.990;5.926;2024-01-16T06:36:31;0.70;99.90
47336;DHT22;33068;51.990;5.926;2024-01-16T06:38:58;0.70;99.90
47336;DHT22;33068;51.990;5.926;2024-01-16T06:41:25;0.70;99.90
47336;DHT22;33068;51.990;5.926;2024-01-16T06:43:53;0.70;99.90
47336;DHT22;33068;51.990;5.926;2024-01-16T06:46:21;0.70;99.90
47336;DHT22;33068;51.990;5.926;2024-01-16T06:48:48;0.70;99.90
47336;DHT22;33068;51.990;5.926;2024-01-16T06:51:15;0.70;99.90
47336;DHT22;33068;51.990;5.926;2024-01-16T06:53:43;0.70;99.90
47336;DHT22;33068;51.990;5.926;2024-01-16T06:56:10;0.70;99.90
47336;DHT22;33068;51.990;5.926;2024-01-16T06:58:37;0.70;99.90
47336;DHT22;33068;51.990;5.926;2024-01-16T07:01:06;0.70;99.90
47336;DHT22;33068;51.990;5.926;2024-01-16T07:03:34;0.70;99.90
47336;DHT22;33068;51.990;5.926;2024-01-16T07:06:01;0.70;99.90
47336;DHT22;33068;51.990;5.926;2024-01-16T07:08:28;0.70;99.90
47336;DHT22;33068;51.990;5.926;2024-01-16T07:10:56;0.70;99.90
47336;DHT22;33068;51.990;5.926;2024-01-16T07:13:23;0.70;99.90
47336;DHT22;33068;51.990;5.926;2024-01-16T07:15:50;0.70;99.90
47336;DHT22;33068;51.990;5.926;2024-01-16T07:18:19;0.70;99.90
47336;DHT22;33068;51.990;5.926;2024-01-16T07:20:46;0.70;99.90
47336;DHT22;33068;51.990;5.926;2024-01-16T07:23:13;0.70;99.90
47336;DHT22;33068;51.990;5.926;2024-01-16T07:25:41;0.70;99.90
47336;DHT22;33068;51.990;5.926;2024-01-16T07:28:08;0.70;99.90
47336;DHT22;33068;51.990;5.926;2024-01-16T07:30:35;0.70;99.90
47336;DHT22;33068;51.990;5.926;2024-01-16T07:33:03;0.70;99.90
47336;DHT22;33068;51.990;5.926;2024-01-16T07:35:31;0.70;99.90
47336;DHT22;33068;51.990;5.926;2024-01-16T07:37:59;0.70;99.90
47336;DHT22;33068;51.990;5.926;2024-01-16T07:40:26;0.70;99.90
47336;DHT22;33068;51.990;5.926;2024-01-16T07:42:53;0.70;99.90
47336;DHT22;33068;51.990;5.926;2024-01-16T07:45:20;0.70;99.90
47336;DHT22;33068;51.990;5.926;2024-01-16T07:47:47;0.70;99.90
47336;DHT22;33068;51.990;5.926;2024-01-16T07:50:14;0.70;99.90
47336;DHT22;33068;51.990;5.926;2024-01-16T07:52:43;0.70;99.90
47336;DHT22;33068;51.990;5.926;2024-01-16T07:55:10;0.70;99.90
47336;DHT22;33068;51.990;5.926;2024-01-16T07:57:37;0.70;99.90
47336;DHT22;33068;51.990;5.926;2024-01-16T08:00:05;0.70;99.90
47336;DHT22;33068;51.990;5.926;2024-01-16T08:02:38;0.70;99.90
47336;DHT22;33068;51.990;5.926;2024-01-16T08:05:05;0.70;99.90
47336;DHT22;33068;51.990;5.926;2024-01-16T08:07:32;0.70;99.90
47336;DHT22;33068;51.990;5.926;2024-01-16T08:10:02;0.70;99.90
47336;DHT22;33068;51.990;5.926;2024-01-16T08:12:30;0.70;99.90
47336;DHT22;33068;51.990;5.926;2024-01-16T08:14:57;0.70;99.90
47336;DHT22;33068;51.990;5.926;2024-01-16T08:17:24;0.70;99.90
47336;DHT22;33068;51.990;5.926;2024-01-16T08:19:51;0.70;99.90
47336;DHT22;33068;51.990;5.926;2024-01-16T08:22:18;0.70;99.90
47336;DHT22;33068;51.990;5.926;2024-01-16T08:24:45;0.70;99.90
47336;DHT22;33068;51.990;5.926;2024-01-16T08:27:13;0.70;99.90
47336;DHT22;33068;51.990;5.926;2024-01-16T08:29:42;0.70;99.90
47336;DHT22;33068;51.990;5.926;2024-01-16T08:32:09;0.70;99.90
47336;DHT22;33068;51.990;5.926;2024-01-16T08:34:36;0.70;99.90
47336;DHT22;33068;51.990;5.926;2024-01-16T08:37:03;0.80;99.90
47336;DHT22;33068;51.990;5.926;2024-01-16T08:39:30;0.70;99.90
47336;DHT22;33068;51.990;5.926;2024-01-16T08:42:00;0.70;99.90
47336;DHT22;33068;51.990;5.926;2024-01-16T08:44:29;0.70;99.90
47336;DHT22;33068;51.990;5.926;2024-01-16T08:46:56;0.70;99.90
47336;DHT22;33068;51.990;5.926;2024-01-16T08:49:25;0.70;99.90
47336;DHT22;33068;51.990;5.926;2024-01-16T08:51:52;0.70;99.90
47336;DHT22;33068;51.990;5.926;2024-01-16T08:54:20;0.70;99.90
47336;DHT22;33068;51.990;5.926;2024-01-16T08:56:48;0.70;99.90
47336;DHT22;33068;51.990;5.926;2024-01-16T08:59:16;0.70;99.90
47336;DHT22;33068;51.990;5.926;2024-01-16T09:01:44;0.70;99.90
47336;DHT22;33068;51.990;5.926;2024-01-16T09:04:11;0.60;99.90
47336;DHT22;33068;51.990;5.926;2024-01-16T09:06:38;0.60;99.90
47336;DHT22;33068;51.990;5.926;2024-01-16T09:09:06;0.70;99.90
47336;DHT22;33068;51.990;5.926;2024-01-16T09:11:34;0.70;99.90
47336;DHT22;33068;51.990;5.926;2024-01-16T09:14:01;0.70;99.90
47336;DHT22;33068;51.990;5.926;2024-01-16T09:16:29;0.60;99.90
47336;DHT22;33068;51.990;5.926;2024-01-16T09:18:57;0.60;99.90
47336;DHT22;33068;51.990;5.926;2024-01-16T09:21:24;0.70;99.90
47336;DHT22;33068;51.990;5.926;2024-01-16T09:23:52;0.70;99.90
47336;DHT22;33068;51.990;5.926;2024-01-16T09:26:19;0.70;99.90
47336;DHT22;33068;51.990;5.926;2024-01-16T09:28:46;0.70;99.90
47336;DHT22;33068;51.990;5.926;2024-01-16T09:31:15;0.70;99.90
47336;DHT22;33068;51.990;5.926;2024-01-16T09:33:42;0.70;99.90
47336;DHT22;33068;51.990;5.926;2024-01-16T09:36:11;0.80;99.90
47336;DHT22;33068;51.990;5.926;2024-01-16T09:38:38;0.80;99.90
47336;DHT22;33068;51.990;5.926;2024-01-16T09:41:05;0.80;99.90
47336;DHT22;33068;51.990;5.926;2024-01-16T09:43:33;0.90;99.90
47336;DHT22;33068;51.990;5.926;2024-01-16T09:46:01;0.90;99.90
47336;DHT22;33068;51.990;5.926;2024-01-16T09:48:29;0.90;99.90
47336;DHT22;33068;51.990;5.926;2024-01-16T09:50:57;0.80;99.90
47336;DHT22;33068;51.990;5.926;2024-01-16T09:53:26;0.90;99.90
47336;DHT22;33068;51.990;5.926;2024-01-16T09:55:54;1.00;99.90
47336;DHT22;33068;51.990;5.926;2024-01-16T09:58:22;1.00;99.90
47336;DHT22;33068;51.990;5.926;2024-01-16T10:00:50;1.00;99.90
47336;DHT22;33068;51.990;5.926;2024-01-16T10:03:19;1.00;99.90
47336;DHT22;33068;51.990;5.926;2024-01-16T10:05:48;0.90;99.90
47336;DHT22;33068;51.990;5.926;2024-01-16T10:08:15;0.90;99.90
47336;DHT22;33068;51.990;5.926;2024-01-16T10:10:48;0.80;99.90
47336;DHT22;33068;51.990;5.926;2024-01-16T10:13:17;0.90;99.90
47336;DHT22;33068;51.990;5.926;2024-01-16T10:15:44;0.90;99.90
47336;DHT22;33068;51.990;5.926;2024-01-16T10:18:22;1.00;99.90
47336;DHT22;33068;51.990;5.926;2024-01-16T10:20:50;1.20;99.90
47336;DHT22;33068;51.990;5.926;2024-01-16T10:23:25;1.20;99.90
47336;DHT22;33068;51.990;5.926;2024-01-16T10:26:07;1.10;99.90
47336;DHT22;33068;51.990;5.926;2024-01-16T10:28:34;1.10;99.90
47336;DHT22;33068;51.990;5.926;2024-01-16T10:31:03;1.10;99.90
47336;DHT22;33068;51.990;5.926;2024-01-16T10:33:30;1.20;99.90
47336;DHT22;33068;51.990;5.926;2024-01-16T10:36:11;1.30;99.90
47336;DHT22;33068;51.990;5.926;2024-01-16T10:38:39;1.40;99.90
47336;DHT22;33068;51.990;5.926;2024-01-16T10:41:11;1.40;99.90
47336;DHT22;33068;51.990;5.926;2024-01-16T10:43:41;1.30;99.90
47336;DHT22;33068;51.990;5.926;2024-01-16T10:46:11;1.30;99.90
47336;DHT22;33068;51.990;5.926;2024-01-16T10:48:40;1.40;99.90
47336;DHT22;33068;51.990;5.926;2024-01-16T10:51:09;1.60;99.90
47336;DHT22;33068;51.990;5.926;2024-01-16T10:53:41;1.60;99.90
47336;DHT22;33068;51.990;5.926;2024-01-16T10:56:11;1.50;99.90
47336;DHT22;33068;51.990;5.926;2024-01-16T10:58:42;1.50;99.90
47336;DHT22;33068;51.990;5.926;2024-01-16T11:01:11;1.50;99.90
47336;DHT22;33068;51.990;5.926;2024-01-16T11:03:43;1.60;99.90
47336;DHT22;33068;51.990;5.926;2024-01-16T11:06:15;1.80;99.90
47336;DHT22;33068;51.990;5.926;2024-01-16T11:08:42;1.80;99.90
47336;DHT22;33068;51.990;5.926;2024-01-16T11:11:11;1.90;99.90
47336;DHT22;33068;51.990;5.926;2024-01-16T11:13:40;2.00;99.90
47336;DHT22;33068;51.990;5.926;2024-01-16T11:16:10;2.20;99.90
47336;DHT22;33068;51.990;5.926;2024-01-16T11:18:38;2.20;99.90
47336;DHT22;33068;51.990;5.926;2024-01-16T11:21:07;2.30;99.90
47336;DHT22;33068;51.990;5.926;2024-01-16T11:23:36;2.20;99.90
47336;DHT22;33068;51.990;5.926;2024-01-16T11:26:26;2.20;99.90
47336;DHT22;33068;51.990;5.926;2024-01-16T11:28:54;2.20;99.90
47336;DHT22;33068;51.990;5.926;2024-01-16T11:31:31;2.10;99.90
47336;DHT22;33068;51.990;5.926;2024-01-16T11:33:59;2.50;99.90
47336;DHT22;33068;51.990;5.926;2024-01-16T11:36:43;2.60;99.90
47336;DHT22;33068;51.990;5.926;2024-01-16T11:39:17;2.90;99.90
47336;DHT22;33068;51.990;5.926;2024-01-16T11:41:50;3.20;99.90
47336;DHT22;33068;51.990;5.926;2024-01-16T11:44:41;3.30;99.90
47336;DHT22;33068;51.990;5.926;2024-01-16T11:47:09;3.20;99.90
47336;DHT22;33068;51.990;5.926;2024-01-16T11:49:42;3.00;99.90
47336;DHT22;33068;51.990;5.926;2024-01-16T11:52:09;2.90;99.90
47336;DHT22;33068;51.990;5.926;2024-01-16T11:54:37;2.90;99.90
47336;DHT22;33068;51.990;5.926;2024-01-16T11:57:09;2.90;99.90
47336;DHT22;33068;51.990;5.926;2024-01-16T12:00:00;2.90;99.90
47336;DHT22;33068;51.990;5.926;2024-01-16T12:02:51;2.90;99.90
47336;DHT22;33068;51.990;5.926;2024-01-16T12:05:19;3.00;99.90
47336;DHT22;33068;51.990;5.926;2024-01-16T12:07:46;3.10;99.90
47336;DHT22;33068;51.990;5.926;2024-01-16T12:10:15;3.10;99.90
47336;DHT22;33068;51.990;5.926;2024-01-16T12:12:45;3.10;99.90
47336;DHT22;33068;51.990;5.926;2024-01-16T12:15:15;3.10;99.90
47336;DHT22;33068;51.990;5.926;2024-01-16T12:17:53;3.10;99.90
47336;DHT22;33068;51.990;5.926;2024-01-16T12:20:23;2.80;99.90
47336;DHT22;33068;51.990;5.926;2024-01-16T12:22:58;2.90;99.90
47336;DHT22;33068;51.990;5.926;2024-01-16T12:25:26;2.90;99.90
47336;DHT22;33068;51.990;5.926;2024-01-16T12:28:01;2.90;99.90
47336;DHT22;33068;51.990;5.926;2024-01-16T12:30:30;3.00;99.90
47336;DHT22;33068;51.990;5.926;2024-01-16T12:33:05;3.00;99.90
47336;DHT22;33068;51.990;5.926;2024-01-16T12:35:34;3.00;99.90
47336;DHT22;33068;51.990;5.926;2024-01-16T12:38:03;3.00;99.90
47336;DHT22;33068;51.990;5.926;2024-01-16T12:40:32;3.20;99.90
47336;DHT22;33068;51.990;5.926;2024-01-16T12:43:00;3.30;99.90
47336;DHT22;33068;51.990;5.926;2024-01-16T12:45:28;3.50;99.90
47336;DHT22;33068;51.990;5.926;2024-01-16T12:47:55;3.40;99.90
47336;DHT22;33068;51.990;5.926;2024-01-16T12:50:26;3.30;99.90
47336;DHT22;33068;51.990;5.926;2024-01-16T12:53:02;3.30;99.90
47336;DHT22;33068;51.990;5.926;2024-01-16T12:55:30;3.30;99.90
47336;DHT22;33068;51.990;5.926;2024-01-16T12:58:15;3.10;99.90
47336;DHT22;33068;51.990;5.926;2024-01-16T13:00:43;3.00;99.90
47336;DHT22;33068;51.990;5.926;2024-01-16T13:03:17;3.00;99.90
47336;DHT22;33068;51.990;5.926;2024-01-16T13:05:46;2.90;99.90
47336;DHT22;33068;51.990;5.926;2024-01-16T13:08:23;3.00;99.90
47336;DHT22;33068;51.990;5.926;2024-01-16T13:11:06;3.00;99.90
47336;DHT22;33068;51.990;5.926;2024-01-16T13:13:35;3.10;99.90
47336;DHT22;33068;51.990;5.926;2024-01-16T13:16:04;3.10;99.90
47336;DHT22;33068;51.990;5.926;2024-01-16T13:18:32;3.20;99.90
47336;DHT22;33068;51.990;5.926;2024-01-16T13:21:00;3.10;99.90
47336;DHT22;33068;51.990;5.926;2024-01-16T13:23:28;3.10;99.90
47336;DHT22;33068;51.990;5.926;2024-01-16T13:25:56;3.10;99.90
47336;DHT22;33068;51.990;5.926;2024-01-16T13:28:24;3.10;99.90
47336;DHT22;33068;51.990;5.926;2024-01-16T13:30:54;3.20;99.90
47336;DHT22;33068;51.990;5.926;2024-01-16T13:33:23;3.20;99.90
47336;DHT22;33068;51.990;5.926;2024-01-16T13:35:53;3.30;99.90
47336;DHT22;33068;51.990;5.926;2024-01-16T13:38:21;3.30;99.90
47336;DHT22;33068;51.990;5.926;2024-01-16T13:40:48;3.30;99.90
47336;DHT22;33068;51.990;5.926;2024-01-16T13:43:16;3.20;99.90
47336;DHT22;33068;51.990;5.926;2024-01-16T13:45:43;3.20;99.90
47336;DHT22;33068;51.990;5.926;2024-01-16T13:48:12;3.30;99.90
47336;DHT22;33068;51.990;5.926;2024-01-16T13:50:39;3.40;99.90
47336;DHT22;33068;51.990;5.926;2024-01-16T13:53:07;3.50;99.90
47336;DHT22;33068;51.990;5.926;2024-01-16T13:55:35;3.50;99.90
47336;DHT22;33068;51.990;5.926;2024-01-16T13:58:02;3.40;99.90
47336;DHT22;33068;51.990;5.926;2024-01-16T14:00:30;3.20;99.90
47336;DHT22;33068;51.990;5.926;2024-01-16T14:02:57;3.10;99.90
47336;DHT22;33068;51.990;5.926;2024-01-16T14:05:26;3.00;99.90
47336;DHT22;33068;51.990;5.926;2024-01-16T14:07:53;2.90;99.90
47336;DHT22;33068;51.990;5.926;2024-01-16T14:10:22;2.80;99.90
47336;DHT22;33068;51.990;5.926;2024-01-16T14:12:51;2.70;99.90
47336;DHT22;33068;51.990;5.926;2024-01-16T14:15:19;2.70;99.90
47336;DHT22;33068;51.990;5.926;2024-01-16T14:17:50;2.70;99.90
47336;DHT22;33068;51.990;5.926;2024-01-16T14:20:19;2.50;99.90
47336;DHT22;33068;51.990;5.926;2024-01-16T14:22:51;2.50;99.90
47336;DHT22;33068;51.990;5.926;2024-01-16T14:25:19;2.40;99.90
47336;DHT22;33068;51.990;5.926;2024-01-16T14:27:55;2.30;99.90
47336;DHT22;33068;51.990;5.926;2024-01-16T14:30:22;2.20;99.90
47336;DHT22;33068;51.990;5.926;2024-01-16T14:32:51;2.10;99.90
47336;DHT22;33068;51.990;5.926;2024-01-16T14:35:18;2.10;99.90
47336;DHT22;33068;51.990;5.926;2024-01-16T14:37:46;2.00;99.90
47336;DHT22;33068;51.990;5.926;2024-01-16T14:40:15;2.00;99.90
47336;DHT22;33068;51.990;5.926;2024-01-16T14:42:46;2.00;99.90
47336;DHT22;33068;51.990;5.926;2024-01-16T14:45:14;2.00;99.90
47336;DHT22;33068;51.990;5.926;2024-01-16T14:47:41;2.00;99.90
47336;DHT22;33068;51.990;5.926;2024-01-16T14:50:11;1.90;99.90
47336;DHT22;33068;51.990;5.926;2024-01-16T14:52:42;1.90;99.90
47336;DHT22;33068;51.990;5.926;2024-01-16T14:55:09;1.90;99.90
47336;DHT22;33068;51.990;5.926;2024-01-16T14:57:39;1.90;99.90
47336;DHT22;33068;51.990;5.926;2024-01-16T15:00:10;1.80;99.90
47336;DHT22;33068;51.990;5.926;2024-01-16T15:02:45;1.70;99.90
47336;DHT22;33068;51.990;5.926;2024-01-16T15:05:13;1.70;99.90
47336;DHT22;33068;51.990;5.926;2024-01-16T15:07:41;1.70;99.90
47336;DHT22;33068;51.990;5.926;2024-01-16T15:10:10;1.60;99.90
47336;DHT22;33068;51.990;5.926;2024-01-16T15:12:39;1.60;99.90
47336;DHT22;33068;51.990;5.926;2024-01-16T15:15:07;1.60;99.90
47336;DHT22;33068;51.990;5.926;2024-01-16T15:17:36;1.50;99.90
47336;DHT22;33068;51.990;5.926;2024-01-16T15:20:03;1.50;99.90
47336;DHT22;33068;51.990;5.926;2024-01-16T15:22:34;1.40;99.90
47336;DHT22;33068;51.990;5.926;2024-01-16T15:25:03;1.40;99.90
47336;DHT22;33068;51.990;5.926;2024-01-16T15:27:32;1.40;99.90
47336;DHT22;33068;51.990;5.926;2024-01-16T15:30:00;1.30;99.90
47336;DHT22;33068;51.990;5.926;2024-01-16T15:32:28;1.40;99.90
47336;DHT22;33068;51.990;5.926;2024-01-16T15:34:55;1.40;99.90
47336;DHT22;33068;51.990;5.926;2024-01-16T15:37:22;1.30;99.90
47336;DHT22;33068;51.990;5.926;2024-01-16T15:39:49;1.20;99.90
47336;DHT22;33068;51.990;5.926;2024-01-16T15:42:16;1.20;99.90
47336;DHT22;33068;51.990;5.926;2024-01-16T15:44:44;1.20;99.90
47336;DHT22;33068;51.990;5.926;2024-01-16T15:47:12;1.20;99.90
47336;DHT22;33068;51.990;5.926;2024-01-16T15:49:39;1.20;99.90
47336;DHT22;33068;51.990;5.926;2024-01-16T15:52:07;1.10;99.90